sensor_id;sensor_type;location;lat;lon;timestamp;temperature;humidity
61641;HTU21D;62201;49.966;8.342;2023-04-03T00:00:52;5.18;73.24
61641;HTU21D;62201;49.966;8.342;2023-04-03T00:03:18;5.19;72.99
61641;HTU21D;62201;49.966;8.342;2023-04-03T00:05:44;5.21;72.92
61641;HTU21D;62201;49.966;8.342;2023-04-03T00:08:10;5.20;72.96
61641;HTU21D;62201;49.966;8.342;2023-04-03T00:10:36;5.22;72.89
61641;HTU21D;62201;49.966;8.342;2023-04-03T00:13:03;5.22;72.69
61641;HTU21D;62201;49.966;8.342;2023-04-03T00:15:29;5.23;72.89
61641;HTU21D;62201;49.966;8.342;2023-04-03T00:17:54;5.21;72.92
61641;HTU21D;62201;49.966;8.342;2023-04-03T00:20:19;5.21;72.75
61641;HTU21D;62201;49.966;8.342;2023-04-03T00:25:13;5.22;72.61
61641;HTU21D;62201;49.966;8.342;2023-04-03T00:27:39;5.21;72.42
61641;HTU21D;62201;49.966;8.342;2023-04-03T00:30:05;5.21;72.37
61641;HTU21D;62201;49.966;8.342;2023-04-03T00:32:30;5.20;72.41
61641;HTU21D;62201;49.966;8.342;2023-04-03T00:34:56;5.20;72.30
61641;HTU21D;62201;49.966;8.342;2023-04-03T00:37:21;5.21;72.25
61641;HTU21D;62201;49.966;8.342;2023-04-03T00:39:46;5.21;72.34
61641;HTU21D;62201;49.966;8.342;2023-04-03T00:42:12;5.21;72.29
61641;HTU21D;62201;49.966;8.342;2023-04-03T00:47:05;5.25;72.38
61641;HTU21D;62201;49.966;8.342;2023-04-03T00:49:32;5.24;72.34
61641;HTU21D;62201;49.966;8.342;2023-04-03T00:51:58;5.26;72.30
61641;HTU21D;62201;49.966;8.342;2023-04-03T00:54:24;5.27;72.09
61641;HTU21D;62201;49.966;8.342;2023-04-03T00:56:51;5.31;72.05
61641;HTU21D;62201;49.966;8.342;2023-04-03T00:59:22;5.33;71.29
61641;HTU21D;62201;49.966;8.342;2023-04-03T01:01:51;5.37;70.88
61641;HTU21D;62201;49.966;8.342;2023-04-03T01:04:32;5.39;70.86
61641;HTU21D;62201;49.966;8.342;2023-04-03T01:07:01;5.40;71.10
61641;HTU21D;62201;49.966;8.342;2023-04-03T01:09:28;5.40;70.95
61641;HTU21D;62201;49.966;8.342;2023-04-03T01:11:54;5.40;70.56
61641;HTU21D;62201;49.966;8.342;2023-04-03T01:14:19;5.40;70.71
61641;HTU21D;62201;49.966;8.342;2023-04-03T01:16:54;5.41;70.77
61641;HTU21D;62201;49.966;8.342;2023-04-03T01:19:21;5.41;70.62
61641;HTU21D;62201;49.966;8.342;2023-04-03T01:24:38;5.42;70.47
61641;HTU21D;62201;49.966;8.342;2023-04-03T01:27:07;5.40;70.53
61641;HTU21D;62201;49.966;8.342;2023-04-03T01:29:34;5.41;70.56
61641;HTU21D;62201;49.966;8.342;2023-04-03T01:32:00;5.41;70.61
61641;HTU21D;62201;49.966;8.342;2023-04-03T01:34:28;5.41;70.69
61641;HTU21D;62201;49.966;8.342;2023-04-03T01:36:53;5.42;70.63
61641;HTU21D;62201;49.966;8.342;2023-04-03T01:39:19;5.43;70.61
61641;HTU21D;62201;49.966;8.342;2023-04-03T01:41:46;5.43;70.39
61641;HTU21D;62201;49.966;8.342;2023-04-03T01:44:11;5.42;70.62
61641;HTU21D;62201;49.966;8.342;2023-04-03T01:46:37;5.41;70.32
61641;HTU21D;62201;49.966;8.342;2023-04-03T01:49:03;5.41;70.59
61641;HTU21D;62201;49.966;8.342;2023-04-03T01:51:29;5.41;70.42
61641;HTU21D;62201;49.966;8.342;2023-04-03T01:53:54;5.42;70.34
61641;HTU21D;62201;49.966;8.342;2023-04-03T01:56:20;5.43;70.38
61641;HTU21D;62201;49.966;8.342;2023-04-03T01:58:45;5.42;70.60
61641;HTU21D;62201;49.966;8.342;2023-04-03T02:01:13;5.46;70.55
61641;HTU21D;62201;49.966;8.342;2023-04-03T02:03:39;5.46;70.45
61641;HTU21D;62201;49.966;8.342;2023-04-03T02:06:04;5.47;70.32
61641;HTU21D;62201;49.966;8.342;2023-04-03T02:08:30;5.43;70.65
61641;HTU21D;62201;49.966;8.342;2023-04-03T02:10:55;5.42;70.82
61641;HTU21D;62201;49.966;8.342;2023-04-03T02:13:21;5.40;70.87
61641;HTU21D;62201;49.966;8.342;2023-04-03T02:15:46;5.40;70.83
61641;HTU21D;62201;49.966;8.342;2023-04-03T02:18:13;5.41;70.98
61641;HTU21D;62201;49.966;8.342;2023-04-03T02:20:39;5.40;71.00
61641;HTU21D;62201;49.966;8.342;2023-04-03T02:23:04;5.41;70.84
61641;HTU21D;62201;49.966;8.342;2023-04-03T02:25:31;5.41;70.86
61641;HTU21D;62201;49.966;8.342;2023-04-03T02:27:57;5.42;71.01
61641;HTU21D;62201;49.966;8.342;2023-04-03T02:30:22;5.41;71.15
61641;HTU21D;62201;49.966;8.342;2023-04-03T02:32:48;5.40;71.32
61641;HTU21D;62201;49.966;8.342;2023-04-03T02:35:13;5.42;71.36
61641;HTU21D;62201;49.966;8.342;2023-04-03T02:37:39;5.42;71.35
61641;HTU21D;62201;49.966;8.342;2023-04-03T02:40:05;5.43;71.59
61641;HTU21D;62201;49.966;8.342;2023-04-03T02:42:31;5.43;71.71
61641;HTU21D;62201;49.966;8.342;2023-04-03T02:44:56;5.42;71.74
61641;HTU21D;62201;49.966;8.342;2023-04-03T02:47:22;5.43;71.66
61641;HTU21D;62201;49.966;8.342;2023-04-03T02:49:47;5.42;71.84
61641;HTU21D;62201;49.966;8.342;2023-04-03T02:52:13;5.41;71.92
61641;HTU21D;62201;49.966;8.342;2023-04-03T02:54:39;5.42;71.68
61641;HTU21D;62201;49.966;8.342;2023-04-03T02:57:04;5.40;71.45
61641;HTU21D;62201;49.966;8.342;2023-04-03T02:59:29;5.39;71.65
61641;HTU21D;62201;49.966;8.342;2023-04-03T03:01:55;5.40;71.84
61641;HTU21D;62201;49.966;8.342;2023-04-03T03:04:21;5.38;72.06
61641;HTU21D;62201;49.966;8.342;2023-04-03T03:06:46;5.37;72.29
61641;HTU21D;62201;49.966;8.342;2023-04-03T03:09:12;5.36;72.45
61641;HTU21D;62201;49.966;8.342;2023-04-03T03:11:38;5.35;72.93
61641;HTU21D;62201;49.966;8.342;2023-04-03T03:14:04;5.34;72.74
61641;HTU21D;62201;49.966;8.342;2023-04-03T03:16:29;5.32;72.87
61641;HTU21D;62201;49.966;8.342;2023-04-03T03:18:55;5.31;73.07
61641;HTU21D;62201;49.966;8.342;2023-04-03T03:21:20;5.31;73.14
61641;HTU21D;62201;49.966;8.342;2023-04-03T03:23:46;5.28;73.17
61641;HTU21D;62201;49.966;8.342;2023-04-03T03:26:11;5.27;73.35
61641;HTU21D;62201;49.966;8.342;2023-04-03T03:28:38;5.26;73.51
61641;HTU21D;62201;49.966;8.342;2023-04-03T03:31:04;5.23;73.83
61641;HTU21D;62201;49.966;8.342;2023-04-03T03:33:29;5.24;74.21
61641;HTU21D;62201;49.966;8.342;2023-04-03T03:35:55;5.21;74.60
61641;HTU21D;62201;49.966;8.342;2023-04-03T03:38:22;5.20;74.57
61641;HTU21D;62201;49.966;8.342;2023-04-03T03:40:48;5.20;74.62
61641;HTU21D;62201;49.966;8.342;2023-04-03T03:43:15;5.16;74.80
61641;HTU21D;62201;49.966;8.342;2023-04-03T03:45:42;5.13;74.83
61641;HTU21D;62201;49.966;8.342;2023-04-03T03:48:07;5.12;74.74
61641;HTU21D;62201;49.966;8.342;2023-04-03T03:50:34;5.12;74.54
61641;HTU21D;62201;49.966;8.342;2023-04-03T03:52:59;5.09;74.89
61641;HTU21D;62201;49.966;8.342;2023-04-03T03:55:25;5.08;74.86
61641;HTU21D;62201;49.966;8.342;2023-04-03T03:57:51;5.06;75.13
61641;HTU21D;62201;49.966;8.342;2023-04-03T04:00:17;5.04;75.58
61641;HTU21D;62201;49.966;8.342;2023-04-03T04:05:43;4.91;75.81
61641;HTU21D;62201;49.966;8.342;2023-04-03T04:08:08;4.84;75.93
61641;HTU21D;62201;49.966;8.342;2023-04-03T04:10:34;4.78;75.09
61641;HTU21D;62201;49.966;8.342;2023-04-03T04:13:00;4.73;74.62
61641;HTU21D;62201;49.966;8.342;2023-04-03T04:15:26;4.67;73.93
61641;HTU21D;62201;49.966;8.342;2023-04-03T04:17:52;4.62;73.11
61641;HTU21D;62201;49.966;8.342;2023-04-03T04:20:18;4.58;72.29
61641;HTU21D;62201;49.966;8.342;2023-04-03T04:22:43;4.56;71.88
61641;HTU21D;62201;49.966;8.342;2023-04-03T04:25:09;4.52;71.24
61641;HTU21D;62201;49.966;8.342;2023-04-03T04:27:35;4.50;70.89
61641;HTU21D;62201;49.966;8.342;2023-04-03T04:30:00;4.49;71.12
61641;HTU21D;62201;49.966;8.342;2023-04-03T04:32:26;4.45;70.94
61641;HTU21D;62201;49.966;8.342;2023-04-03T04:34:51;4.42;70.22
61641;HTU21D;62201;49.966;8.342;2023-04-03T04:37:17;4.38;70.39
61641;HTU21D;62201;49.966;8.342;2023-04-03T04:39:42;4.34;70.95
61641;HTU21D;62201;49.966;8.342;2023-04-03T04:42:07;4.32;70.64
61641;HTU21D;62201;49.966;8.342;2023-04-03T04:44:40;4.29;70.83
61641;HTU21D;62201;49.966;8.342;2023-04-03T04:47:06;4.27;71.03
61641;HTU21D;62201;49.966;8.342;2023-04-03T04:49:31;4.22;71.57
61641;HTU21D;62201;49.966;8.342;2023-04-03T04:51:57;4.16;71.71
61641;HTU21D;62201;49.966;8.342;2023-04-03T04:54:22;4.13;71.81
61641;HTU21D;62201;49.966;8.342;2023-04-03T04:56:47;4.08;72.19
61641;HTU21D;62201;49.966;8.342;2023-04-03T04:59:13;4.04;72.34
61641;HTU21D;62201;49.966;8.342;2023-04-03T05:01:38;3.99;72.29
61641;HTU21D;62201;49.966;8.342;2023-04-03T05:04:04;3.95;72.43
61641;HTU21D;62201;49.966;8.342;2023-04-03T05:06:29;3.92;72.39
61641;HTU21D;62201;49.966;8.342;2023-04-03T05:08:57;3.87;72.36
61641;HTU21D;62201;49.966;8.342;2023-04-03T05:11:23;3.85;72.35
61641;HTU21D;62201;49.966;8.342;2023-04-03T05:13:49;3.79;72.47
61641;HTU21D;62201;49.966;8.342;2023-04-03T05:16:15;3.77;72.83
61641;HTU21D;62201;49.966;8.342;2023-04-03T05:18:40;3.73;72.96
61641;HTU21D;62201;49.966;8.342;2023-04-03T05:21:05;3.73;73.06
61641;HTU21D;62201;49.966;8.342;2023-04-03T05:23:31;3.68;73.35
61641;HTU21D;62201;49.966;8.342;2023-04-03T05:25:56;3.67;73.28
61641;HTU21D;62201;49.966;8.342;2023-04-03T05:28:22;3.61;73.76
61641;HTU21D;62201;49.966;8.342;2023-04-03T05:30:54;3.59;73.77
61641;HTU21D;62201;49.966;8.342;2023-04-03T05:33:20;3.57;73.80
61641;HTU21D;62201;49.966;8.342;2023-04-03T05:35:46;3.56;74.22
61641;HTU21D;62201;49.966;8.342;2023-04-03T05:38:11;3.59;74.20
61641;HTU21D;62201;49.966;8.342;2023-04-03T05:40:37;3.60;74.12
61641;HTU21D;62201;49.966;8.342;2023-04-03T05:43:02;3.59;74.43
61641;HTU21D;62201;49.966;8.342;2023-04-03T05:45:28;3.57;74.54
61641;HTU21D;62201;49.966;8.342;2023-04-03T05:47:53;3.59;74.13
61641;HTU21D;62201;49.966;8.342;2023-04-03T05:50:19;3.60;74.20
61641;HTU21D;62201;49.966;8.342;2023-04-03T05:52:47;3.64;74.28
61641;HTU21D;62201;49.966;8.342;2023-04-03T05:55:14;3.64;74.23
61641;HTU21D;62201;49.966;8.342;2023-04-03T05:57:39;3.68;74.12
61641;HTU21D;62201;49.966;8.342;2023-04-03T06:00:06;3.71;74.20
61641;HTU21D;62201;49.966;8.342;2023-04-03T06:02:32;3.71;74.55
61641;HTU21D;62201;49.966;8.342;2023-04-03T06:04:57;3.75;74.00
61641;HTU21D;62201;49.966;8.342;2023-04-03T06:07:24;3.79;74.19
61641;HTU21D;62201;49.966;8.342;2023-04-03T06:09:53;3.79;73.96
61641;HTU21D;62201;49.966;8.342;2023-04-03T06:12:21;3.76;74.32
61641;HTU21D;62201;49.966;8.342;2023-04-03T06:14:47;3.75;73.87
61641;HTU21D;62201;49.966;8.342;2023-04-03T06:17:13;3.80;73.81
61641;HTU21D;62201;49.966;8.342;2023-04-03T06:19:40;3.88;73.73
61641;HTU21D;62201;49.966;8.342;2023-04-03T06:22:06;3.93;73.41
61641;HTU21D;62201;49.966;8.342;2023-04-03T06:24:31;3.95;73.05
61641;HTU21D;62201;49.966;8.342;2023-04-03T06:26:57;3.97;73.52
61641;HTU21D;62201;49.966;8.342;2023-04-03T06:29:23;4.03;73.07
61641;HTU21D;62201;49.966;8.342;2023-04-03T06:31:49;4.10;72.64
61641;HTU21D;62201;49.966;8.342;2023-04-03T06:34:14;4.22;72.46
61641;HTU21D;62201;49.966;8.342;2023-04-03T06:36:41;4.33;72.19
61641;HTU21D;62201;49.966;8.342;2023-04-03T06:39:09;4.42;71.48
61641;HTU21D;62201;49.966;8.342;2023-04-03T06:41:38;4.38;71.42
61641;HTU21D;62201;49.966;8.342;2023-04-03T06:44:03;4.36;70.95
61641;HTU21D;62201;49.966;8.342;2023-04-03T06:46:28;4.38;71.05
61641;HTU21D;62201;49.966;8.342;2023-04-03T06:48:54;4.27;71.32
61641;HTU21D;62201;49.966;8.342;2023-04-03T06:53:47;4.41;71.47
61641;HTU21D;62201;49.966;8.342;2023-04-03T06:56:12;4.46;71.25
61641;HTU21D;62201;49.966;8.342;2023-04-03T06:58:38;4.46;70.80
61641;HTU21D;62201;49.966;8.342;2023-04-03T07:01:04;4.49;70.96
61641;HTU21D;62201;49.966;8.342;2023-04-03T07:03:29;4.52;70.93
61641;HTU21D;62201;49.966;8.342;2023-04-03T07:05:55;4.52;69.70
61641;HTU21D;62201;49.966;8.342;2023-04-03T07:08:20;4.50;69.07
61641;HTU21D;62201;49.966;8.342;2023-04-03T07:10:46;4.46;68.87
61641;HTU21D;62201;49.966;8.342;2023-04-03T07:13:11;4.46;68.34
61641;HTU21D;62201;49.966;8.342;2023-04-03T07:15:37;4.53;68.26
61641;HTU21D;62201;49.966;8.342;2023-04-03T07:18:02;4.65;68.27
61641;HTU21D;62201;49.966;8.342;2023-04-03T07:20:29;4.63;68.21
61641;HTU21D;62201;49.966;8.342;2023-04-03T07:22:54;4.62;68.03
61641;HTU21D;62201;49.966;8.342;2023-04-03T07:25:20;4.67;68.41
61641;HTU21D;62201;49.966;8.342;2023-04-03T07:27:45;4.66;67.61
61641;HTU21D;62201;49.966;8.342;2023-04-03T07:30:11;4.77;68.16
61641;HTU21D;62201;49.966;8.342;2023-04-03T07:32:39;4.87;67.25
61641;HTU21D;62201;49.966;8.342;2023-04-03T07:35:04;4.93;67.30
61641;HTU21D;62201;49.966;8.342;2023-04-03T07:37:30;4.94;67.33
61641;HTU21D;62201;49.966;8.342;2023-04-03T07:39:55;5.08;67.50
61641;HTU21D;62201;49.966;8.342;2023-04-03T07:42:22;5.13;67.17
61641;HTU21D;62201;49.966;8.342;2023-04-03T07:44:47;5.20;66.62
61641;HTU21D;62201;49.966;8.342;2023-04-03T07:47:13;5.21;66.46
61641;HTU21D;62201;49.966;8.342;2023-04-03T07:49:41;5.13;66.43
61641;HTU21D;62201;49.966;8.342;2023-04-03T07:52:06;5.19;66.28
61641;HTU21D;62201;49.966;8.342;2023-04-03T07:54:33;5.26;66.15
61641;HTU21D;62201;49.966;8.342;2023-04-03T07:56:59;5.37;65.79
61641;HTU21D;62201;49.966;8.342;2023-04-03T07:59:24;5.39;65.50
61641;HTU21D;62201;49.966;8.342;2023-04-03T08:01:49;5.47;65.11
61641;HTU21D;62201;49.966;8.342;2023-04-03T08:04:15;5.48;64.97
61641;HTU21D;62201;49.966;8.342;2023-04-03T08:06:40;5.60;65.27
61641;HTU21D;62201;49.966;8.342;2023-04-03T08:09:06;5.68;64.82
61641;HTU21D;62201;49.966;8.342;2023-04-03T08:11:31;5.65;64.71
61641;HTU21D;62201;49.966;8.342;2023-04-03T08:13:56;5.61;64.27
61641;HTU21D;62201;49.966;8.342;2023-04-03T08:16:23;5.69;64.37
61641;HTU21D;62201;49.966;8.342;2023-04-03T08:18:50;6.23;63.24
61641;HTU21D;62201;49.966;8.342;2023-04-03T08:21:16;6.83;62.16
61641;HTU21D;62201;49.966;8.342;2023-04-03T08:23:42;7.35;61.62
61641;HTU21D;62201;49.966;8.342;2023-04-03T08:26:12;7.56;58.39
61641;HTU21D;62201;49.966;8.342;2023-04-03T08:28:38;7.54;58.44
61641;HTU21D;62201;49.966;8.342;2023-04-03T08:31:06;7.41;59.04
61641;HTU21D;62201;49.966;8.342;2023-04-03T08:33:32;7.44;58.95
61641;HTU21D;62201;49.966;8.342;2023-04-03T08:35:58;7.45;58.63
61641;HTU21D;62201;49.966;8.342;2023-04-03T08:38:24;7.86;57.51
61641;HTU21D;62201;49.966;8.342;2023-04-03T08:41:04;8.08;56.54
61641;HTU21D;62201;49.966;8.342;2023-04-03T08:46:11;8.12;55.45
61641;HTU21D;62201;49.966;8.342;2023-04-03T08:48:42;8.61;54.71
61641;HTU21D;62201;49.966;8.342;2023-04-03T08:51:14;8.77;54.05
61641;HTU21D;62201;49.966;8.342;2023-04-03T08:53:48;8.86;54.56
61641;HTU21D;62201;49.966;8.342;2023-04-03T08:56:15;8.90;52.87
61641;HTU21D;62201;49.966;8.342;2023-04-03T08:58:56;9.37;51.27
61641;HTU21D;62201;49.966;8.342;2023-04-03T09:01:30;9.30;50.94
61641;HTU21D;62201;49.966;8.342;2023-04-03T09:04:00;9.26;50.60
61641;HTU21D;62201;49.966;8.342;2023-04-03T09:06:28;9.92;49.89
61641;HTU21D;62201;49.966;8.342;2023-04-03T09:14:33;9.17;50.73
61641;HTU21D;62201;49.966;8.342;2023-04-03T09:20:02;8.65;50.36
61641;HTU21D;62201;49.966;8.342;2023-04-03T09:22:32;8.50;50.85
61641;HTU21D;62201;49.966;8.342;2023-04-03T09:25:05;7.86;52.24
61641;HTU21D;62201;49.966;8.342;2023-04-03T09:27:32;7.23;54.10
61641;HTU21D;62201;49.966;8.342;2023-04-03T09:29:58;6.88;56.04
61641;HTU21D;62201;49.966;8.342;2023-04-03T09:32:34;7.38;55.08
61641;HTU21D;62201;49.966;8.342;2023-04-03T09:35:26;6.99;54.96
61641;HTU21D;62201;49.966;8.342;2023-04-03T09:37:54;6.85;55.25
61641;HTU21D;62201;49.966;8.342;2023-04-03T09:42:49;6.58;55.70
61641;HTU21D;62201;49.966;8.342;2023-04-03T09:45:36;7.30;55.05
61641;HTU21D;62201;49.966;8.342;2023-04-03T09:50:35;7.41;54.28
61641;HTU21D;62201;49.966;8.342;2023-04-03T09:53:11;7.64;54.17
61641;HTU21D;62201;49.966;8.342;2023-04-03T09:55:49;9.33;50.43
61641;HTU21D;62201;49.966;8.342;2023-04-03T09:58:42;8.59;51.39
61641;HTU21D;62201;49.966;8.342;2023-04-03T10:01:23;8.46;50.30
61641;HTU21D;62201;49.966;8.342;2023-04-03T10:04:07;8.32;50.30
61641;HTU21D;62201;49.966;8.342;2023-04-03T10:06:35;8.46;50.60
61641;HTU21D;62201;49.966;8.342;2023-04-03T10:09:14;9.15;49.85
61641;HTU21D;62201;49.966;8.342;2023-04-03T10:14:31;8.53;51.60
61641;HTU21D;62201;49.966;8.342;2023-04-03T10:16:59;8.04;51.08
61641;HTU21D;62201;49.966;8.342;2023-04-03T10:19:57;7.76;52.39
61641;HTU21D;62201;49.966;8.342;2023-04-03T10:22:32;7.70;51.63
61641;HTU21D;62201;49.966;8.342;2023-04-03T10:28:09;8.71;49.63
61641;HTU21D;62201;49.966;8.342;2023-04-03T10:30:48;8.98;48.38
61641;HTU21D;62201;49.966;8.342;2023-04-03T10:33:28;8.56;50.05
61641;HTU21D;62201;49.966;8.342;2023-04-03T10:36:14;8.34;50.61
61641;HTU21D;62201;49.966;8.342;2023-04-03T10:41:31;7.82;52.20
61641;HTU21D;62201;49.966;8.342;2023-04-03T10:46:36;7.82;52.78
61641;HTU21D;62201;49.966;8.342;2023-04-03T10:52:13;7.77;52.64
61641;HTU21D;62201;49.966;8.342;2023-04-03T10:54:44;8.57;50.83
61641;HTU21D;62201;49.966;8.342;2023-04-03T10:57:12;8.51;50.99
61641;HTU21D;62201;49.966;8.342;2023-04-03T10:59:44;8.22;51.59
61641;HTU21D;62201;49.966;8.342;2023-04-03T11:02:29;8.57;51.08
61641;HTU21D;62201;49.966;8.342;2023-04-03T11:07:32;8.39;49.70
61641;HTU21D;62201;49.966;8.342;2023-04-03T11:10:03;8.88;49.83
61641;HTU21D;62201;49.966;8.342;2023-04-03T11:12:46;8.89;49.50
61641;HTU21D;62201;49.966;8.342;2023-04-03T11:15:16;9.69;47.95
61641;HTU21D;62201;49.966;8.342;2023-04-03T11:18:02;9.65;47.22
61641;HTU21D;62201;49.966;8.342;2023-04-03T11:20:31;9.22;47.79
61641;HTU21D;62201;49.966;8.342;2023-04-03T11:23:06;9.85;46.89
61641;HTU21D;62201;49.966;8.342;2023-04-03T11:25:38;9.49;46.44
61641;HTU21D;62201;49.966;8.342;2023-04-03T11:28:12;9.76;46.34
61641;HTU21D;62201;49.966;8.342;2023-04-03T11:30:53;9.83;44.93
61641;HTU21D;62201;49.966;8.342;2023-04-03T11:36:10;9.55;45.83
61641;HTU21D;62201;49.966;8.342;2023-04-03T11:38:41;9.52;46.02
61641;HTU21D;62201;49.966;8.342;2023-04-03T11:41:08;9.18;45.87
61641;HTU21D;62201;49.966;8.342;2023-04-03T11:43:41;9.55;46.31
61641;HTU21D;62201;49.966;8.342;2023-04-03T11:46:08;9.98;44.23
61641;HTU21D;62201;49.966;8.342;2023-04-03T11:53:38;8.82;45.89
61641;HTU21D;62201;49.966;8.342;2023-04-03T11:59:15;9.36;44.78
61641;HTU21D;62201;49.966;8.342;2023-04-03T12:01:56;9.77;44.82
61641;HTU21D;62201;49.966;8.342;2023-04-03T12:04:25;10.26;42.84
61641;HTU21D;62201;49.966;8.342;2023-04-03T12:07:00;9.86;43.35
61641;HTU21D;62201;49.966;8.342;2023-04-03T12:09:33;9.78;44.26
61641;HTU21D;62201;49.966;8.342;2023-04-03T12:12:01;9.72;43.64
61641;HTU21D;62201;49.966;8.342;2023-04-03T12:14:28;9.29;44.22
61641;HTU21D;62201;49.966;8.342;2023-04-03T12:16:55;9.91;43.16
61641;HTU21D;62201;49.966;8.342;2023-04-03T12:19:39;10.05;41.05
61641;HTU21D;62201;49.966;8.342;2023-04-03T12:22:12;10.10;41.33
61641;HTU21D;62201;49.966;8.342;2023-04-03T12:24:41;9.86;41.31
61641;HTU21D;62201;49.966;8.342;2023-04-03T12:41:00;9.09;42.45
61641;HTU21D;62201;49.966;8.342;2023-04-03T12:46:21;9.25;40.97
61641;HTU21D;62201;49.966;8.342;2023-04-03T12:48:55;9.64;39.73
61641;HTU21D;62201;49.966;8.342;2023-04-03T12:51:34;10.05;39.49
61641;HTU21D;62201;49.966;8.342;2023-04-03T12:54:03;9.68;40.10
61641;HTU21D;62201;49.966;8.342;2023-04-03T12:56:31;9.69;40.16
61641;HTU21D;62201;49.966;8.342;2023-04-03T13:01:39;10.29;39.39
61641;HTU21D;62201;49.966;8.342;2023-04-03T13:04:04;10.63;38.43
61641;HTU21D;62201;49.966;8.342;2023-04-03T13:06:37;10.42;38.25
61641;HTU21D;62201;49.966;8.342;2023-04-03T13:09:03;10.54;37.86
61641;HTU21D;62201;49.966;8.342;2023-04-03T13:11:40;10.43;38.38
61641;HTU21D;62201;49.966;8.342;2023-04-03T13:14:19;9.97;38.14
61641;HTU21D;62201;49.966;8.342;2023-04-03T13:19:22;10.09;39.13
61641;HTU21D;62201;49.966;8.342;2023-04-03T13:21:49;10.22;38.36
61641;HTU21D;62201;49.966;8.342;2023-04-03T13:24:15;9.95;39.23
61641;HTU21D;62201;49.966;8.342;2023-04-03T13:26:41;10.33;39.39
61641;HTU21D;62201;49.966;8.342;2023-04-03T13:29:34;10.79;37.59
61641;HTU21D;62201;49.966;8.342;2023-04-03T13:32:01;10.85;37.16
61641;HTU21D;62201;49.966;8.342;2023-04-03T13:34:35;11.33;36.24
61641;HTU21D;62201;49.966;8.342;2023-04-03T13:37:01;11.36;36.14
61641;HTU21D;62201;49.966;8.342;2023-04-03T13:39:32;11.12;36.43
61641;HTU21D;62201;49.966;8.342;2023-04-03T13:41:59;11.34;36.45
61641;HTU21D;62201;49.966;8.342;2023-04-03T13:44:36;11.30;35.81
61641;HTU21D;62201;49.966;8.342;2023-04-03T13:49:44;11.37;36.08
61641;HTU21D;62201;49.966;8.342;2023-04-03T13:52:32;11.36;35.81
61641;HTU21D;62201;49.966;8.342;2023-04-03T14:00:38;11.68;34.86
61641;HTU21D;62201;49.966;8.342;2023-04-03T14:03:13;11.77;34.60
61641;HTU21D;62201;49.966;8.342;2023-04-03T14:05:39;11.83;34.44
61641;HTU21D;62201;49.966;8.342;2023-04-03T14:08:05;11.82;34.07
61641;HTU21D;62201;49.966;8.342;2023-04-03T14:10:32;11.81;34.02
61641;HTU21D;62201;49.966;8.342;2023-04-03T14:12:57;11.98;34.42
61641;HTU21D;62201;49.966;8.342;2023-04-03T14:15:26;12.02;33.26
61641;HTU21D;62201;49.966;8.342;2023-04-03T14:17:52;11.34;34.76
61641;HTU21D;62201;49.966;8.342;2023-04-03T14:20:20;11.42;35.31
61641;HTU21D;62201;49.966;8.342;2023-04-03T14:22:47;11.32;35.65
61641;HTU21D;62201;49.966;8.342;2023-04-03T14:25:14;12.01;34.34
61641;HTU21D;62201;49.966;8.342;2023-04-03T14:27:43;11.62;34.99
61641;HTU21D;62201;49.966;8.342;2023-04-03T14:30:14;11.89;34.62
61641;HTU21D;62201;49.966;8.342;2023-04-03T14:32:42;11.63;34.28
61641;HTU21D;62201;49.966;8.342;2023-04-03T14:35:07;12.23;34.02
61641;HTU21D;62201;49.966;8.342;2023-04-03T14:37:33;12.22;33.46
61641;HTU21D;62201;49.966;8.342;2023-04-03T14:40:00;12.02;34.66
61641;HTU21D;62201;49.966;8.342;2023-04-03T14:42:29;12.06;33.42
61641;HTU21D;62201;49.966;8.342;2023-04-03T14:44:56;12.59;33.70
61641;HTU21D;62201;49.966;8.342;2023-04-03T14:47:25;12.57;33.34
61641;HTU21D;62201;49.966;8.342;2023-04-03T14:49:51;12.37;33.25
61641;HTU21D;62201;49.966;8.342;2023-04-03T14:52:20;12.26;33.91
61641;HTU21D;62201;49.966;8.342;2023-04-03T14:54:47;12.07;32.83
61641;HTU21D;62201;49.966;8.342;2023-04-03T14:57:13;12.21;33.38
61641;HTU21D;62201;49.966;8.342;2023-04-03T14:59:39;12.72;32.89
61641;HTU21D;62201;49.966;8.342;2023-04-03T15:02:34;12.75;32.38
61641;HTU21D;62201;49.966;8.342;2023-04-03T15:05:01;12.63;32.26
61641;HTU21D;62201;49.966;8.342;2023-04-03T15:07:30;12.57;32.50
61641;HTU21D;62201;49.966;8.342;2023-04-03T15:09:56;12.22;33.25
61641;HTU21D;62201;49.966;8.342;2023-04-03T15:12:23;12.27;33.32
61641;HTU21D;62201;49.966;8.342;2023-04-03T15:14:48;12.33;32.96
61641;HTU21D;62201;49.966;8.342;2023-04-03T15:17:21;12.18;33.03
61641;HTU21D;62201;49.966;8.342;2023-04-03T15:19:47;11.92;33.16
61641;HTU21D;62201;49.966;8.342;2023-04-03T15:22:17;12.08;33.09
61641;HTU21D;62201;49.966;8.342;2023-04-03T15:24:43;12.16;32.70
61641;HTU21D;62201;49.966;8.342;2023-04-03T15:27:10;12.11;32.60
61641;HTU21D;62201;49.966;8.342;2023-04-03T15:29:37;12.18;32.84
61641;HTU21D;62201;49.966;8.342;2023-04-03T15:32:03;12.30;32.58
61641;HTU21D;62201;49.966;8.342;2023-04-03T15:34:29;12.28;33.05
61641;HTU21D;62201;49.966;8.342;2023-04-03T15:36:54;12.38;32.35
61641;HTU21D;62201;49.966;8.342;2023-04-03T15:39:20;12.25;32.14
61641;HTU21D;62201;49.966;8.342;2023-04-03T15:41:46;12.07;32.12
61641;HTU21D;62201;49.966;8.342;2023-04-03T15:44:11;12.11;32.60
61641;HTU21D;62201;49.966;8.342;2023-04-03T15:46:37;11.89;33.38
61641;HTU21D;62201;49.966;8.342;2023-04-03T15:49:04;11.62;33.81
61641;HTU21D;62201;49.966;8.342;2023-04-03T15:51:30;11.98;33.68
61641;HTU21D;62201;49.966;8.342;2023-04-03T15:53:55;12.14;33.57
61641;HTU21D;62201;49.966;8.342;2023-04-03T15:56:20;12.12;32.60
61641;HTU21D;62201;49.966;8.342;2023-04-03T15:58:46;11.98;32.93
61641;HTU21D;62201;49.966;8.342;2023-04-03T16:01:11;11.77;33.47
61641;HTU21D;62201;49.966;8.342;2023-04-03T16:03:37;12.02;33.02
61641;HTU21D;62201;49.966;8.342;2023-04-03T16:06:08;12.12;32.51
61641;HTU21D;62201;49.966;8.342;2023-04-03T16:08:34;12.07;32.36
61641;HTU21D;62201;49.966;8.342;2023-04-03T16:11:01;12.01;32.16
61641;HTU21D;62201;49.966;8.342;2023-04-03T16:13:27;12.13;32.41
61641;HTU21D;62201;49.966;8.342;2023-04-03T16:15:53;12.18;31.94
61641;HTU21D;62201;49.966;8.342;2023-04-03T16:18:18;12.17;31.70
61641;HTU21D;62201;49.966;8.342;2023-04-03T16:20:44;12.10;32.24
61641;HTU21D;62201;49.966;8.342;2023-04-03T16:23:09;11.83;32.60
61641;HTU21D;62201;49.966;8.342;2023-04-03T16:25:36;12.20;32.70
61641;HTU21D;62201;49.966;8.342;2023-04-03T16:28:01;12.19;32.23
61641;HTU21D;62201;49.966;8.342;2023-04-03T16:30:26;12.16;32.32
61641;HTU21D;62201;49.966;8.342;2023-04-03T16:32:52;11.86;32.37
61641;HTU21D;62201;49.966;8.342;2023-04-03T16:35:18;11.91;32.85
61641;HTU21D;62201;49.966;8.342;2023-04-03T16:37:44;11.98;32.90
61641;HTU21D;62201;49.966;8.342;2023-04-03T16:40:09;12.11;32.61
61641;HTU21D;62201;49.966;8.342;2023-04-03T16:42:35;12.04;32.35
61641;HTU21D;62201;49.966;8.342;2023-04-03T16:45:00;11.93;32.66
61641;HTU21D;62201;49.966;8.342;2023-04-03T16:47:29;12.06;32.79
61641;HTU21D;62201;49.966;8.342;2023-04-03T16:49:54;11.93;33.21
61641;HTU21D;62201;49.966;8.342;2023-04-03T16:52:19;11.69;34.03
61641;HTU21D;62201;49.966;8.342;2023-04-03T16:54:45;11.72;34.18
61641;HTU21D;62201;49.966;8.342;2023-04-03T16:57:11;11.68;34.15
61641;HTU21D;62201;49.966;8.342;2023-04-03T16:59:36;11.70;34.39